createdAt,value
2019-03-16T00:00:47.074Z,7.83
2019-03-16T00:03:14.435Z,13.73
2019-03-16T00:05:41.914Z,10.67
2019-03-16T00:08:09.331Z,7.53
2019-03-16T00:10:36.830Z,7.93
2019-03-16T00:13:04.247Z,12.77
2019-03-16T00:15:31.677Z,12.90
2019-03-16T00:17:59.119Z,8.93
2019-03-16T00:20:26.520Z,11.90
2019-03-16T00:22:53.870Z,11.00
2019-03-16T00:25:21.345Z,9.77
2019-03-16T00:27:48.793Z,12.93
2019-03-16T00:30:35.576Z,8.03
2019-03-16T00:33:02.964Z,11.13
2019-03-16T00:35:30.498Z,12.87
2019-03-16T00:37:57.940Z,10.67
2019-03-16T00:40:25.249Z,8.93
2019-03-16T00:43:12.207Z,14.57
2019-03-16T00:45:39.683Z,11.23
2019-03-16T00:48:07.041Z,11.67
2019-03-16T00:50:34.499Z,9.10
2019-03-16T00:53:01.824Z,9.40
2019-03-16T00:55:29.356Z,9.93
2019-03-16T00:58:16.142Z,12.87
2019-03-16T01:00:43.568Z,10.63
2019-03-16T01:03:11.190Z,11.40
2019-03-16T01:05:38.651Z,7.47
2019-03-16T01:08:05.950Z,14.53
2019-03-16T01:10:33.366Z,10.40
2019-03-16T01:13:00.880Z,9.77
2019-03-16T01:15:47.846Z,10.47
2019-03-16T01:18:15.155Z,10.13
2019-03-16T01:20:42.454Z,10.63
2019-03-16T01:23:09.899Z,12.13
2019-03-16T01:25:56.855Z,10.03
2019-03-16T01:28:24.244Z,14.87
2019-03-16T01:30:51.551Z,8.13
2019-03-16T01:33:18.861Z,9.40
2019-03-16T01:36:05.654Z,9.53
2019-03-16T01:38:32.996Z,7.73
2019-03-16T01:41:00.546Z,8.53
2019-03-16T01:43:47.415Z,13.23
2019-03-16T01:46:14.925Z,13.13
2019-03-16T01:48:42.276Z,10.10
2019-03-16T01:51:09.658Z,12.67
2019-03-16T01:53:36.991Z,7.20
2019-03-16T01:56:04.304Z,7.43
2019-03-16T01:58:51.277Z,11.80
2019-03-16T02:01:18.651Z,6.90
2019-03-16T02:03:46.143Z,8.10
2019-03-16T02:06:13.921Z,8.67
2019-03-16T02:08:41.280Z,9.70
2019-03-16T02:11:08.575Z,11.17
2019-03-16T02:13:36.207Z,11.77
2019-03-16T02:16:10.878Z,10.03
2019-03-16T02:18:32.848Z,7.40
2019-03-16T02:21:00.248Z,11.33
2019-03-16T02:23:27.575Z,16.40
2019-03-16T02:25:54.916Z,11.47
2019-03-16T02:28:22.359Z,12.23
2019-03-16T02:30:49.779Z,14.17
2019-03-16T02:33:17.244Z,8.53
2019-03-16T02:35:44.790Z,12.47
2019-03-16T02:38:12.140Z,9.13
2019-03-16T02:40:39.525Z,8.57
2019-03-16T02:43:07.092Z,7.93
2019-03-16T02:45:34.632Z,9.47
2019-03-16T02:48:01.980Z,9.70
2019-03-16T02:50:29.507Z,8.43
2019-03-16T02:52:56.844Z,8.90
2019-03-16T02:55:24.295Z,11.27
2019-03-16T02:57:51.849Z,10.33
2019-03-16T03:00:19.379Z,6.47
2019-03-16T03:02:46.798Z,14.73
2019-03-16T03:05:14.272Z,8.03
2019-03-16T03:07:41.612Z,8.37
2019-03-16T03:10:09.037Z,11.03
2019-03-16T03:12:55.793Z,7.23
2019-03-16T03:15:23.108Z,5.77
2019-03-16T03:17:50.594Z,7.43
2019-03-16T03:20:17.897Z,8.43
2019-03-16T03:22:45.216Z,8.73
2019-03-16T03:25:12.647Z,7.63
2019-03-16T03:27:59.470Z,10.20
2019-03-16T03:30:46.412Z,9.03
2019-03-16T03:33:13.841Z,7.03
2019-03-16T03:36:00.808Z,10.17
2019-03-16T03:38:28.435Z,10.83
2019-03-16T03:41:15.193Z,10.33
2019-03-16T03:43:42.572Z,6.93
2019-03-16T03:46:32.307Z,10.57
2019-03-16T03:48:58.627Z,11.20
2019-03-16T03:51:26.023Z,11.23
2019-03-16T03:53:53.332Z,7.20
2019-03-16T03:56:20.647Z,10.20
2019-03-16T03:58:48.166Z,10.30
2019-03-16T04:01:34.938Z,10.07
2019-03-16T04:04:14.979Z,10.47
2019-03-16T04:06:31.450Z,10.47
2019-03-16T04:08:58.795Z,10.40
2019-03-16T04:11:26.080Z,9.33
2019-03-16T04:13:53.483Z,9.17
2019-03-16T04:16:40.268Z,7.47
2019-03-16T04:19:07.612Z,7.77
2019-03-16T04:21:35.398Z,8.70
2019-03-16T04:24:02.725Z,8.93
2019-03-16T04:26:30.162Z,8.80
2019-03-16T04:28:57.569Z,11.07
2019-03-16T04:31:44.338Z,10.07
2019-03-16T04:34:11.727Z,8.23
2019-03-16T04:36:39.239Z,10.17
2019-03-16T04:39:06.581Z,6.10
2019-03-16T04:41:53.530Z,6.80
2019-03-16T04:44:21.003Z,7.50
2019-03-16T04:46:48.503Z,6.20
2019-03-16T04:49:35.291Z,9.90
2019-03-16T04:52:02.689Z,6.93
2019-03-16T04:54:30.190Z,5.87
2019-03-16T04:56:57.583Z,7.00
2019-03-16T04:59:46.011Z,6.37
2019-03-16T05:02:13.411Z,5.00
2019-03-16T05:04:42.791Z,6.37
2019-03-16T05:07:10.170Z,4.47
2019-03-16T05:09:37.547Z,5.17
2019-03-16T05:12:05.305Z,5.60
2019-03-16T05:14:32.706Z,3.73
2019-03-16T05:17:00.042Z,5.57
2019-03-16T05:19:27.341Z,4.67
2019-03-16T05:21:54.951Z,4.27
2019-03-16T05:24:22.295Z,4.53
2019-03-16T05:26:49.616Z,7.07
2019-03-16T05:29:17.019Z,6.27
2019-03-16T05:31:44.545Z,7.40
2019-03-16T05:34:32.008Z,11.70
2019-03-16T05:36:59.471Z,15.10
2019-03-16T05:39:26.864Z,28.03
2019-03-16T05:41:54.296Z,22.90
2019-03-16T05:44:21.725Z,31.47
2019-03-16T05:46:49.104Z,38.20
2019-03-16T05:49:16.648Z,31.50
2019-03-16T05:51:44.196Z,27.57
2019-03-16T05:54:11.496Z,27.03
2019-03-16T05:56:38.826Z,33.87
2019-03-16T05:59:06.277Z,33.57
2019-03-16T06:01:33.792Z,32.30
2019-03-16T06:04:01.282Z,33.53
2019-03-16T06:06:48.232Z,28.67
2019-03-16T06:09:16.726Z,26.67
2019-03-16T06:11:44.046Z,21.80
2019-03-16T06:14:11.446Z,29.43
2019-03-16T06:16:43.975Z,29.70
2019-03-16T06:19:16.855Z,28.37
2019-03-16T06:21:44.215Z,27.20
2019-03-16T06:24:18.316Z,32.47
2019-03-16T06:26:45.667Z,35.47
2019-03-16T06:29:13.212Z,38.07
2019-03-16T06:31:59.993Z,39.80
2019-03-16T06:34:27.430Z,33.13
2019-03-16T06:36:54.787Z,27.60
2019-03-16T06:39:22.166Z,30.33
2019-03-16T06:41:49.643Z,31.73
2019-03-16T06:44:17.018Z,37.27
2019-03-16T06:46:44.406Z,39.37
2019-03-16T06:49:31.555Z,21.30
2019-03-16T06:51:58.958Z,34.00
2019-03-16T06:54:26.386Z,27.70
2019-03-16T06:56:53.714Z,40.83
2019-03-16T06:59:21.355Z,28.03
2019-03-16T07:01:49.024Z,21.97
2019-03-16T07:04:16.535Z,39.60
2019-03-16T07:06:44.138Z,42.83
2019-03-16T07:09:25.650Z,34.80
2019-03-16T07:11:52.985Z,47.30
2019-03-16T07:14:24.677Z,28.90
2019-03-16T07:17:01.600Z,31.57
2019-03-16T07:19:24.214Z,25.67
2019-03-16T07:21:51.618Z,35.17
2019-03-16T07:24:19.063Z,31.40
2019-03-16T07:26:46.552Z,33.60
2019-03-16T07:29:14.587Z,41.80
2019-03-16T07:31:42.195Z,27.77
2019-03-16T07:34:12.300Z,38.07
2019-03-16T07:36:39.993Z,33.60
2019-03-16T07:39:07.606Z,36.97
2019-03-16T07:41:35.019Z,37.40
2019-03-16T07:44:02.534Z,38.13
2019-03-16T07:46:30.175Z,30.50
2019-03-16T07:49:16.997Z,25.17
2019-03-16T07:51:44.445Z,33.37
2019-03-16T07:54:11.872Z,23.83
2019-03-16T07:56:39.310Z,31.97
2019-03-16T07:59:26.135Z,23.33
2019-03-16T08:01:53.609Z,22.17
2019-03-16T08:04:21.139Z,21.97
2019-03-16T08:06:49.732Z,31.87
2019-03-16T08:09:17.227Z,30.23
2019-03-16T08:11:44.915Z,28.67
2019-03-16T08:14:12.351Z,31.07
2019-03-16T08:16:59.351Z,31.33
2019-03-16T08:19:26.812Z,39.77
2019-03-16T08:21:54.252Z,34.73
2019-03-16T08:24:41.157Z,32.13
2019-03-16T08:27:08.643Z,37.43
2019-03-16T08:29:36.273Z,28.00
2019-03-16T08:32:03.782Z,27.40
2019-03-16T08:34:31.240Z,26.50
2019-03-16T08:36:58.742Z,21.27
2019-03-16T08:39:26.163Z,30.27
2019-03-16T08:42:13.104Z,31.43
2019-03-16T08:44:40.439Z,28.73
2019-03-16T08:47:07.883Z,25.80
2019-03-16T08:49:35.591Z,26.50
2019-03-16T08:52:02.984Z,29.33
2019-03-16T08:54:30.810Z,25.43
2019-03-16T08:57:17.619Z,22.97
2019-03-16T08:59:58.168Z,27.83
2019-03-16T09:02:25.521Z,23.93
2019-03-16T09:04:53.020Z,19.57
2019-03-16T09:07:39.900Z,25.10
2019-03-16T09:10:07.404Z,19.10
2019-03-16T09:12:35.021Z,24.53
2019-03-16T09:15:02.523Z,20.23
2019-03-16T09:17:49.385Z,24.57
2019-03-16T09:20:16.891Z,21.53
2019-03-16T09:23:03.756Z,18.40
2019-03-16T09:25:31.058Z,17.77
2019-03-16T09:27:59.098Z,14.47
2019-03-16T09:30:26.542Z,22.53
2019-03-16T09:32:57.131Z,11.93
2019-03-16T09:35:24.624Z,22.47
2019-03-16T09:38:11.566Z,14.73
2019-03-16T09:41:17.891Z,22.90
2019-03-16T09:43:45.294Z,13.37
2019-03-16T09:46:12.909Z,16.40
2019-03-16T09:48:41.243Z,19.83
2019-03-16T09:51:08.666Z,20.03
2019-03-16T09:53:36.080Z,12.47
2019-03-16T09:56:05.099Z,14.43
2019-03-16T09:58:32.849Z,12.30
2019-03-16T10:01:00.277Z,12.50
2019-03-16T10:03:27.766Z,13.33
2019-03-16T10:05:58.601Z,15.43
2019-03-16T10:08:45.982Z,13.13
2019-03-16T10:11:14.945Z,17.67
2019-03-16T10:13:42.427Z,13.27
2019-03-16T10:16:09.840Z,15.37
2019-03-16T10:18:37.222Z,16.87
2019-03-16T10:21:04.755Z,15.30
2019-03-16T10:23:32.152Z,13.80
2019-03-16T10:25:59.482Z,11.60
2019-03-16T10:28:26.999Z,14.27
2019-03-16T10:30:54.491Z,15.83
2019-03-16T10:33:21.933Z,19.73
2019-03-16T10:35:49.359Z,14.10
2019-03-16T10:38:16.734Z,13.53
2019-03-16T10:40:44.245Z,14.37
2019-03-16T10:43:11.705Z,14.23
2019-03-16T10:45:39.278Z,14.63
2019-03-16T10:48:06.945Z,13.50
2019-03-16T10:50:34.412Z,15.40
2019-03-16T10:53:02.018Z,13.23
2019-03-16T10:55:36.173Z,9.83
2019-03-16T10:58:03.963Z,12.63
2019-03-16T11:00:31.303Z,14.70
2019-03-16T11:02:58.819Z,10.73
2019-03-16T11:05:26.472Z,13.90
2019-03-16T11:07:53.847Z,14.57
2019-03-16T11:10:23.920Z,14.47
2019-03-16T11:12:51.783Z,16.00
2019-03-16T11:15:19.285Z,14.60
2019-03-16T11:17:50.263Z,13.43
2019-03-16T11:20:17.817Z,9.73
2019-03-16T11:22:45.265Z,13.47
2019-03-16T11:25:12.693Z,9.03
2019-03-16T11:27:40.159Z,10.73
2019-03-16T11:30:11.632Z,10.03
2019-03-16T11:32:42.458Z,9.67
2019-03-16T11:35:10.057Z,11.33
2019-03-16T11:37:46.547Z,11.60
2019-03-16T11:40:33.716Z,13.07
2019-03-16T11:43:22.159Z,11.83
2019-03-16T11:45:49.518Z,7.67
2019-03-16T11:48:36.440Z,5.47
2019-03-16T11:51:05.670Z,10.70
2019-03-16T11:53:33.096Z,12.20
2019-03-16T11:56:00.590Z,9.77
2019-03-16T11:58:31.107Z,8.50
2019-03-16T12:00:58.942Z,10.70
2019-03-16T12:03:26.420Z,9.97
2019-03-16T12:06:13.401Z,7.10
2019-03-16T12:08:40.900Z,10.30
2019-03-16T12:11:08.298Z,9.33
2019-03-16T12:13:55.177Z,8.40
2019-03-16T12:16:22.956Z,9.80
2019-03-16T12:18:50.576Z,12.43
2019-03-16T12:21:37.430Z,10.27
2019-03-16T12:24:13.425Z,16.43
2019-03-16T12:26:41.058Z,8.03
2019-03-16T12:29:09.040Z,9.70
2019-03-16T12:31:36.495Z,14.00
2019-03-16T12:34:04.145Z,6.50
2019-03-16T12:36:31.585Z,10.90
2019-03-16T12:39:08.769Z,9.93
2019-03-16T12:41:36.201Z,9.63
2019-03-16T12:44:03.587Z,7.37
2019-03-16T12:46:31.217Z,11.77
2019-03-16T12:49:18.059Z,6.60
2019-03-16T12:51:45.636Z,8.73
2019-03-16T12:54:13.152Z,10.87
2019-03-16T12:56:40.670Z,9.00
2019-03-16T12:59:10.741Z,11.03
2019-03-16T13:01:58.764Z,6.73
2019-03-16T13:04:28.862Z,9.93
2019-03-16T13:06:56.386Z,11.40
2019-03-16T13:09:30.896Z,7.20
2019-03-16T13:11:58.396Z,7.27
2019-03-16T13:14:26.057Z,12.47
2019-03-16T13:17:13.103Z,8.03
2019-03-16T13:19:50.070Z,8.57
2019-03-16T13:22:19.071Z,10.13
2019-03-16T13:25:06.336Z,9.40
2019-03-16T13:27:33.940Z,7.80
2019-03-16T13:30:21.006Z,12.67
2019-03-16T13:32:55.359Z,9.77
2019-03-16T13:35:22.765Z,11.63
2019-03-16T13:37:50.143Z,10.20
2019-03-16T13:40:37.081Z,8.63
2019-03-16T13:43:04.608Z,8.00
2019-03-16T13:45:32.108Z,12.17
2019-03-16T13:48:18.952Z,10.33
2019-03-16T13:50:46.429Z,8.60
2019-03-16T13:53:14.098Z,7.83
2019-03-16T13:55:41.620Z,9.13
2019-03-16T13:58:28.479Z,9.20
2019-03-16T14:01:08.951Z,9.50
2019-03-16T14:03:37.818Z,7.27
2019-03-16T14:06:05.402Z,9.47
2019-03-16T14:08:52.186Z,8.20
2019-03-16T14:11:19.739Z,9.33
2019-03-16T14:14:06.542Z,11.73
2019-03-16T14:16:34.003Z,6.10
2019-03-16T14:19:01.561Z,8.27
2019-03-16T14:21:29.002Z,8.40
2019-03-16T14:23:56.487Z,10.70
2019-03-16T14:26:24.104Z,4.33
2019-03-16T14:29:11.026Z,9.17
2019-03-16T14:34:24.914Z,11.17
2019-03-16T14:36:52.436Z,8.53
2019-03-16T14:39:19.855Z,7.07
2019-03-16T14:41:47.402Z,8.27
2019-03-16T14:44:14.912Z,11.53
2019-03-16T14:46:42.246Z,8.37
2019-03-16T14:49:09.819Z,12.57
2019-03-16T14:51:56.866Z,14.50
2019-03-16T14:54:36.859Z,15.03
2019-03-16T14:57:04.833Z,9.37
2019-03-16T14:59:32.357Z,14.50
2019-03-16T15:01:59.859Z,13.53
2019-03-16T15:04:27.371Z,18.33
2019-03-16T15:06:54.805Z,17.20
2019-03-16T15:09:22.139Z,12.73
2019-03-16T15:11:49.543Z,11.43
2019-03-16T15:14:21.850Z,10.37
2019-03-16T15:16:46.345Z,18.37
2019-03-16T15:19:13.729Z,15.73
2019-03-16T15:21:41.511Z,12.73
2019-03-16T15:24:11.941Z,19.17
2019-03-16T15:26:39.502Z,15.43
2019-03-16T15:29:07.011Z,13.63
2019-03-16T15:31:34.779Z,6.97
2019-03-16T15:34:02.312Z,9.73
2019-03-16T15:36:29.854Z,10.33
2019-03-16T15:38:57.583Z,7.93
2019-03-16T15:41:25.228Z,13.27
2019-03-16T15:43:52.834Z,13.93
2019-03-16T15:46:20.362Z,14.73
2019-03-16T15:48:48.162Z,12.60
2019-03-16T15:51:15.861Z,9.73
2019-03-16T15:53:44.539Z,14.63
2019-03-16T15:56:13.295Z,11.90
2019-03-16T15:58:43.747Z,12.53
2019-03-16T16:01:11.233Z,7.80
2019-03-16T16:03:38.547Z,14.77
2019-03-16T16:06:05.904Z,9.03
2019-03-16T16:08:33.817Z,8.87
2019-03-16T16:11:20.683Z,12.43
2019-03-16T16:16:32.680Z,12.57
2019-03-16T16:19:00.239Z,13.97
2019-03-16T16:21:27.564Z,10.73
2019-03-16T16:23:55.218Z,12.57
2019-03-16T16:26:22.601Z,13.97
2019-03-16T16:28:50.038Z,16.20
2019-03-16T16:31:17.779Z,12.80
2019-03-16T16:33:45.178Z,10.77
2019-03-16T16:36:12.591Z,11.17
2019-03-16T16:38:53.328Z,14.07
2019-03-16T16:41:20.837Z,12.87
2019-03-16T16:43:49.545Z,16.13
2019-03-16T16:46:36.384Z,11.17
2019-03-16T16:49:03.878Z,14.63
2019-03-16T16:51:31.312Z,16.30
2019-03-16T16:53:58.872Z,12.73
2019-03-16T16:56:26.199Z,7.63
2019-03-16T16:58:53.575Z,7.67
2019-03-16T17:01:29.414Z,11.23
2019-03-16T17:03:50.328Z,11.17
2019-03-16T17:06:17.639Z,11.33
2019-03-16T17:08:45.285Z,11.27
2019-03-16T17:11:32.309Z,14.33
2019-03-16T17:14:19.322Z,10.60
2019-03-16T17:17:06.475Z,12.53
2019-03-16T17:19:33.867Z,8.73
2019-03-16T17:22:01.434Z,12.77
2019-03-16T17:24:34.615Z,9.93
2019-03-16T17:27:02.411Z,12.37
2019-03-16T17:29:29.786Z,8.97
2019-03-16T17:31:57.480Z,11.47
2019-03-16T17:34:24.898Z,13.90
2019-03-16T17:36:52.520Z,10.50
2019-03-16T17:39:20.144Z,13.30
2019-03-16T17:41:47.618Z,12.43
2019-03-16T17:44:15.274Z,15.90
2019-03-16T17:46:42.778Z,13.80
2019-03-16T17:49:10.071Z,16.80
2019-03-16T17:51:37.381Z,7.23
2019-03-16T17:54:24.171Z,14.07
2019-03-16T17:56:51.595Z,16.43
2019-03-16T17:59:19.042Z,11.90
2019-03-16T18:02:05.806Z,9.20
2019-03-16T18:04:33.137Z,11.93
2019-03-16T18:07:00.478Z,7.97
2019-03-16T18:09:27.919Z,8.77
2019-03-16T18:11:55.264Z,14.30
2019-03-16T18:14:22.551Z,15.63
2019-03-16T18:16:50.050Z,16.90
2019-03-16T18:19:17.442Z,15.67
2019-03-16T18:21:44.848Z,14.67
2019-03-16T18:24:12.184Z,8.67
2019-03-16T18:26:39.537Z,12.67
2019-03-16T18:29:26.406Z,11.53
2019-03-16T18:34:38.891Z,7.60
2019-03-16T18:37:26.872Z,12.23
2019-03-16T18:39:54.191Z,7.97
2019-03-16T18:42:21.561Z,8.33
2019-03-16T18:45:09.674Z,14.03
2019-03-16T18:47:37.309Z,14.57
2019-03-16T18:50:04.907Z,10.17
2019-03-16T18:52:32.544Z,12.17
2019-03-16T18:54:59.904Z,10.73
2019-03-16T18:57:27.325Z,11.60
2019-03-16T18:59:54.720Z,14.87
2019-03-16T19:02:22.056Z,11.30
2019-03-16T19:04:49.526Z,15.10
2019-03-16T19:07:17.166Z,9.90
2019-03-16T19:09:44.644Z,14.63
2019-03-16T19:12:11.932Z,14.50
2019-03-16T19:14:39.308Z,11.73
2019-03-16T19:17:26.216Z,14.03
2019-03-16T19:20:13.482Z,9.73
2019-03-16T19:22:40.760Z,11.43
2019-03-16T19:25:10.026Z,13.90
2019-03-16T19:27:37.366Z,16.67
2019-03-16T19:30:24.282Z,13.03
2019-03-16T19:32:51.589Z,12.90
2019-03-16T19:35:19.036Z,13.47
2019-03-16T19:37:46.480Z,15.63
2019-03-16T19:40:14.236Z,10.77
2019-03-16T19:42:41.695Z,15.27
2019-03-16T19:45:09.139Z,14.80
2019-03-16T19:47:36.583Z,11.90
2019-03-16T19:50:23.527Z,11.50
2019-03-16T19:52:51.050Z,14.63
2019-03-16T19:55:37.872Z,13.23
2019-03-16T19:58:05.503Z,12.93
2019-03-16T20:00:33.039Z,15.07
2019-03-16T20:03:00.494Z,15.73
2019-03-16T20:05:27.848Z,11.67
2019-03-16T20:07:55.171Z,16.50
2019-03-16T20:10:22.725Z,11.40
2019-03-16T20:12:52.914Z,13.80
2019-03-16T20:15:19.760Z,13.50
2019-03-16T20:17:47.200Z,23.37
2019-03-16T20:20:14.784Z,15.17
2019-03-16T20:22:42.118Z,18.20
2019-03-16T20:25:12.482Z,15.23
2019-03-16T20:27:39.901Z,13.43
2019-03-16T20:30:07.850Z,13.03
2019-03-16T20:32:42.215Z,12.07
2019-03-16T20:35:09.752Z,12.50
2019-03-16T20:37:37.374Z,9.03
2019-03-16T20:40:06.212Z,11.33
2019-03-16T20:42:33.683Z,9.13
2019-03-16T20:45:20.663Z,14.43
2019-03-16T20:47:48.322Z,13.07
2019-03-16T20:50:15.701Z,16.33
2019-03-16T20:53:02.448Z,12.93
2019-03-16T20:55:29.879Z,12.37
2019-03-16T20:57:57.413Z,13.73
2019-03-16T21:00:44.335Z,13.90
2019-03-16T21:03:16.365Z,12.67
2019-03-16T21:06:00.476Z,14.03
2019-03-16T21:08:28.928Z,12.47
2019-03-16T21:10:56.417Z,12.73
2019-03-16T21:13:23.871Z,11.80
2019-03-16T21:16:10.795Z,12.37
2019-03-16T21:18:38.121Z,11.90
2019-03-16T21:21:05.626Z,10.83
2019-03-16T21:23:33.144Z,12.50
2019-03-16T21:26:19.959Z,11.97
2019-03-16T21:28:47.290Z,10.17
2019-03-16T21:31:36.269Z,10.57
2019-03-16T21:34:03.776Z,12.03
2019-03-16T21:36:40.849Z,12.00
2019-03-16T21:39:06.561Z,11.20
2019-03-16T21:41:33.941Z,7.87
2019-03-16T21:44:01.315Z,6.43
2019-03-16T21:46:28.638Z,7.23
2019-03-16T21:48:56.040Z,14.63
2019-03-16T21:51:42.931Z,9.80
2019-03-16T21:54:10.343Z,12.13
2019-03-16T21:56:37.905Z,9.73
2019-03-16T21:59:26.458Z,11.50
2019-03-16T22:01:54.072Z,6.90
2019-03-16T22:04:40.873Z,9.07
2019-03-16T22:07:08.892Z,8.57
2019-03-16T22:09:36.537Z,8.87
2019-03-16T22:12:03.908Z,10.10
2019-03-16T22:14:31.302Z,14.43
2019-03-16T22:16:59.199Z,8.13
2019-03-16T22:19:32.584Z,10.80
2019-03-16T22:22:06.530Z,10.67
2019-03-16T22:24:53.420Z,10.87
2019-03-16T22:27:20.724Z,10.23
2019-03-16T22:29:48.382Z,13.50
2019-03-16T22:32:15.868Z,9.70
2019-03-16T22:34:43.364Z,6.10
2019-03-16T22:37:10.714Z,8.30
2019-03-16T22:39:38.172Z,10.57
2019-03-16T22:42:05.595Z,9.43
2019-03-16T22:44:32.911Z,12.27
2019-03-16T22:47:00.244Z,10.40
2019-03-16T22:49:27.651Z,4.97
2019-03-16T22:51:54.960Z,11.07
2019-03-16T22:54:22.372Z,7.13
2019-03-16T22:57:09.165Z,10.73
2019-03-16T22:59:36.646Z,9.30
2019-03-16T23:02:03.951Z,5.50
2019-03-16T23:04:31.358Z,6.77
2019-03-16T23:06:58.888Z,8.40
2019-03-16T23:09:26.326Z,6.43
2019-03-16T23:11:53.754Z,8.27
2019-03-16T23:14:21.113Z,7.60
2019-03-16T23:16:48.420Z,11.27
2019-03-16T23:19:15.974Z,8.13
2019-03-16T23:21:43.424Z,8.20
2019-03-16T23:24:10.934Z,9.40
2019-03-16T23:26:57.848Z,6.37
2019-03-16T23:29:44.698Z,8.47
2019-03-16T23:32:12.057Z,6.87
2019-03-16T23:34:39.508Z,7.60
2019-03-16T23:37:06.799Z,6.00
2019-03-16T23:39:34.223Z,9.07
2019-03-16T23:42:01.507Z,10.67
2019-03-16T23:44:28.844Z,9.33
2019-03-16T23:46:56.269Z,6.10
2019-03-16T23:49:26.711Z,12.40
2019-03-16T23:52:13.522Z,7.77
2019-03-16T23:54:40.964Z,8.80
2019-03-16T23:57:11.436Z,5.40
2019-03-16T23:59:41.639Z,8.97
